sensor_id;sensor_type;location;lat;lon;timestamp;P1;durP1;ratioP1;P2;durP2;ratioP2
23300;SDS011;11819;51.394;12.340;2023-03-07T00:00:08;34.03;;;15.50;;
23300;SDS011;11819;51.394;12.340;2023-03-07T00:02:36;32.97;;;15.07;;
23300;SDS011;11819;51.394;12.340;2023-03-07T00:05:02;30.23;;;14.43;;
23300;SDS011;11819;51.394;12.340;2023-03-07T00:07:28;29.53;;;14.17;;
23300;SDS011;11819;51.394;12.340;2023-03-07T00:09:57;30.57;;;14.83;;
23300;SDS011;11819;51.394;12.340;2023-03-07T00:12:22;34.13;;;18.47;;
23300;SDS011;11819;51.394;12.340;2023-03-07T00:14:48;36.67;;;17.57;;
23300;SDS011;11819;51.394;12.340;2023-03-07T00:17:14;31.17;;;14.83;;
23300;SDS011;11819;51.394;12.340;2023-03-07T00:19:42;27.20;;;15.33;;
23300;SDS011;11819;51.394;12.340;2023-03-07T00:22:09;29.43;;;13.83;;
23300;SDS011;11819;51.394;12.340;2023-03-07T00:24:35;30.50;;;15.43;;
23300;SDS011;11819;51.394;12.340;2023-03-07T00:27:01;30.23;;;15.73;;
23300;SDS011;11819;51.394;12.340;2023-03-07T00:29:27;29.87;;;14.13;;
23300;SDS011;11819;51.394;12.340;2023-03-07T00:31:53;29.73;;;14.37;;
23300;SDS011;11819;51.394;12.340;2023-03-07T00:34:18;29.37;;;14.70;;
23300;SDS011;11819;51.394;12.340;2023-03-07T00:36:44;30.80;;;14.87;;
23300;SDS011;11819;51.394;12.340;2023-03-07T00:39:10;29.80;;;14.73;;
23300;SDS011;11819;51.394;12.340;2023-03-07T00:41:36;32.77;;;15.73;;
23300;SDS011;11819;51.394;12.340;2023-03-07T00:44:02;26.00;;;14.03;;
23300;SDS011;11819;51.394;12.340;2023-03-07T00:46:29;26.87;;;14.53;;
23300;SDS011;11819;51.394;12.340;2023-03-07T00:48:54;27.63;;;14.27;;
23300;SDS011;11819;51.394;12.340;2023-03-07T00:51:21;27.70;;;14.27;;
23300;SDS011;11819;51.394;12.340;2023-03-07T00:53:48;29.40;;;13.87;;
23300;SDS011;11819;51.394;12.340;2023-03-07T00:56:15;26.33;;;14.53;;
23300;SDS011;11819;51.394;12.340;2023-03-07T00:58:43;28.63;;;14.37;;
23300;SDS011;11819;51.394;12.340;2023-03-07T01:01:10;28.77;;;15.17;;
23300;SDS011;11819;51.394;12.340;2023-03-07T01:03:38;27.27;;;14.47;;
23300;SDS011;11819;51.394;12.340;2023-03-07T01:06:05;30.27;;;14.97;;
23300;SDS011;11819;51.394;12.340;2023-03-07T01:08:36;28.77;;;15.27;;
23300;SDS011;11819;51.394;12.340;2023-03-07T01:11:03;34.30;;;16.70;;
23300;SDS011;11819;51.394;12.340;2023-03-07T01:13:30;30.77;;;15.27;;
23300;SDS011;11819;51.394;12.340;2023-03-07T01:18:46;30.83;;;15.20;;
23300;SDS011;11819;51.394;12.340;2023-03-07T01:21:21;29.87;;;15.53;;
23300;SDS011;11819;51.394;12.340;2023-03-07T01:23:49;28.10;;;13.20;;
23300;SDS011;11819;51.394;12.340;2023-03-07T01:26:26;28.57;;;13.77;;
23300;SDS011;11819;51.394;12.340;2023-03-07T01:28:54;31.33;;;14.73;;
23300;SDS011;11819;51.394;12.340;2023-03-07T01:31:23;27.67;;;14.73;;
23300;SDS011;11819;51.394;12.340;2023-03-07T01:33:50;30.40;;;15.77;;
23300;SDS011;11819;51.394;12.340;2023-03-07T01:38:52;27.20;;;13.90;;
23300;SDS011;11819;51.394;12.340;2023-03-07T01:41:19;25.80;;;14.03;;
23300;SDS011;11819;51.394;12.340;2023-03-07T01:43:47;30.50;;;14.73;;
23300;SDS011;11819;51.394;12.340;2023-03-07T01:49:06;29.27;;;14.00;;
23300;SDS011;11819;51.394;12.340;2023-03-07T01:51:38;31.40;;;15.17;;
23300;SDS011;11819;51.394;12.340;2023-03-07T01:54:06;28.63;;;14.53;;
23300;SDS011;11819;51.394;12.340;2023-03-07T01:56:36;25.57;;;13.53;;
23300;SDS011;11819;51.394;12.340;2023-03-07T01:59:03;29.60;;;14.60;;
23300;SDS011;11819;51.394;12.340;2023-03-07T02:01:33;27.17;;;13.27;;
23300;SDS011;11819;51.394;12.340;2023-03-07T02:04:02;28.43;;;14.57;;
23300;SDS011;11819;51.394;12.340;2023-03-07T02:06:37;26.97;;;14.47;;
23300;SDS011;11819;51.394;12.340;2023-03-07T02:09:06;27.87;;;13.80;;
23300;SDS011;11819;51.394;12.340;2023-03-07T02:11:39;29.30;;;14.97;;
23300;SDS011;11819;51.394;12.340;2023-03-07T02:14:06;21.27;;;11.27;;
23300;SDS011;11819;51.394;12.340;2023-03-07T02:16:32;25.40;;;13.10;;
23300;SDS011;11819;51.394;12.340;2023-03-07T02:18:58;29.00;;;15.47;;
23300;SDS011;11819;51.394;12.340;2023-03-07T02:26:32;27.70;;;13.80;;
23300;SDS011;11819;51.394;12.340;2023-03-07T02:29:03;18.40;;;11.17;;
23300;SDS011;11819;51.394;12.340;2023-03-07T02:31:31;25.70;;;13.30;;
23300;SDS011;11819;51.394;12.340;2023-03-07T02:33:56;26.57;;;13.83;;
23300;SDS011;11819;51.394;12.340;2023-03-07T02:36:22;22.73;;;11.37;;
23300;SDS011;11819;51.394;12.340;2023-03-07T02:39:03;24.80;;;13.53;;
23300;SDS011;11819;51.394;12.340;2023-03-07T02:41:33;28.03;;;13.60;;
23300;SDS011;11819;51.394;12.340;2023-03-07T02:44:07;28.63;;;14.37;;
23300;SDS011;11819;51.394;12.340;2023-03-07T02:46:32;30.77;;;16.57;;
23300;SDS011;11819;51.394;12.340;2023-03-07T02:48:58;30.70;;;15.37;;
23300;SDS011;11819;51.394;12.340;2023-03-07T02:51:24;29.17;;;15.80;;
23300;SDS011;11819;51.394;12.340;2023-03-07T02:53:49;25.13;;;13.97;;
23300;SDS011;11819;51.394;12.340;2023-03-07T02:56:15;29.80;;;15.50;;
23300;SDS011;11819;51.394;12.340;2023-03-07T02:58:41;25.77;;;14.87;;
23300;SDS011;11819;51.394;12.340;2023-03-07T03:01:06;23.83;;;11.80;;
23300;SDS011;11819;51.394;12.340;2023-03-07T03:03:35;29.47;;;15.73;;
23300;SDS011;11819;51.394;12.340;2023-03-07T03:06:01;26.80;;;12.77;;
23300;SDS011;11819;51.394;12.340;2023-03-07T03:08:26;27.33;;;13.07;;
23300;SDS011;11819;51.394;12.340;2023-03-07T03:10:52;27.30;;;15.07;;
23300;SDS011;11819;51.394;12.340;2023-03-07T03:13:21;27.83;;;14.60;;
23300;SDS011;11819;51.394;12.340;2023-03-07T03:15:47;27.60;;;13.90;;
23300;SDS011;11819;51.394;12.340;2023-03-07T03:18:12;24.13;;;12.90;;
23300;SDS011;11819;51.394;12.340;2023-03-07T03:20:39;21.33;;;10.87;;
23300;SDS011;11819;51.394;12.340;2023-03-07T03:23:06;24.30;;;11.97;;
23300;SDS011;11819;51.394;12.340;2023-03-07T03:25:32;12.70;;;6.80;;
23300;SDS011;11819;51.394;12.340;2023-03-07T03:27:58;23.53;;;12.80;;
23300;SDS011;11819;51.394;12.340;2023-03-07T03:30:26;17.90;;;10.30;;
23300;SDS011;11819;51.394;12.340;2023-03-07T03:32:57;22.33;;;11.53;;
23300;SDS011;11819;51.394;12.340;2023-03-07T03:35:23;26.50;;;12.57;;
23300;SDS011;11819;51.394;12.340;2023-03-07T03:37:52;19.53;;;10.37;;
23300;SDS011;11819;51.394;12.340;2023-03-07T03:40:18;28.13;;;14.27;;
23300;SDS011;11819;51.394;12.340;2023-03-07T03:42:44;25.33;;;13.63;;
23300;SDS011;11819;51.394;12.340;2023-03-07T03:45:12;20.40;;;9.07;;
23300;SDS011;11819;51.394;12.340;2023-03-07T03:47:41;18.70;;;8.67;;
23300;SDS011;11819;51.394;12.340;2023-03-07T03:50:07;19.23;;;10.50;;
23300;SDS011;11819;51.394;12.340;2023-03-07T03:52:36;22.20;;;11.53;;
23300;SDS011;11819;51.394;12.340;2023-03-07T03:55:02;14.90;;;7.60;;
23300;SDS011;11819;51.394;12.340;2023-03-07T03:57:29;22.83;;;11.37;;
23300;SDS011;11819;51.394;12.340;2023-03-07T03:59:56;19.20;;;8.43;;
23300;SDS011;11819;51.394;12.340;2023-03-07T04:02:22;22.57;;;10.47;;
23300;SDS011;11819;51.394;12.340;2023-03-07T04:04:49;20.23;;;11.40;;
23300;SDS011;11819;51.394;12.340;2023-03-07T04:07:15;21.97;;;10.20;;
23300;SDS011;11819;51.394;12.340;2023-03-07T04:09:40;24.33;;;10.47;;
23300;SDS011;11819;51.394;12.340;2023-03-07T04:12:07;13.50;;;6.93;;
23300;SDS011;11819;51.394;12.340;2023-03-07T04:14:32;25.47;;;13.27;;
23300;SDS011;11819;51.394;12.340;2023-03-07T04:16:58;23.73;;;12.77;;
23300;SDS011;11819;51.394;12.340;2023-03-07T04:19:24;23.40;;;10.73;;
23300;SDS011;11819;51.394;12.340;2023-03-07T04:21:50;22.50;;;11.10;;
23300;SDS011;11819;51.394;12.340;2023-03-07T04:24:17;15.40;;;8.03;;
23300;SDS011;11819;51.394;12.340;2023-03-07T04:26:42;24.57;;;12.70;;
23300;SDS011;11819;51.394;12.340;2023-03-07T04:29:08;17.20;;;8.60;;
23300;SDS011;11819;51.394;12.340;2023-03-07T04:31:39;16.10;;;8.30;;
23300;SDS011;11819;51.394;12.340;2023-03-07T04:34:06;16.90;;;9.47;;
23300;SDS011;11819;51.394;12.340;2023-03-07T04:36:32;18.53;;;9.93;;
23300;SDS011;11819;51.394;12.340;2023-03-07T04:38:58;17.40;;;9.20;;
23300;SDS011;11819;51.394;12.340;2023-03-07T04:41:24;21.47;;;10.43;;
23300;SDS011;11819;51.394;12.340;2023-03-07T04:43:55;22.47;;;12.30;;
23300;SDS011;11819;51.394;12.340;2023-03-07T04:46:23;19.53;;;10.13;;
23300;SDS011;11819;51.394;12.340;2023-03-07T04:48:50;19.07;;;9.77;;
23300;SDS011;11819;51.394;12.340;2023-03-07T04:51:15;15.27;;;8.23;;
23300;SDS011;11819;51.394;12.340;2023-03-07T04:53:42;22.67;;;10.80;;
23300;SDS011;11819;51.394;12.340;2023-03-07T04:56:08;17.50;;;8.90;;
23300;SDS011;11819;51.394;12.340;2023-03-07T04:58:36;21.00;;;10.00;;
23300;SDS011;11819;51.394;12.340;2023-03-07T05:01:03;22.93;;;10.20;;
23300;SDS011;11819;51.394;12.340;2023-03-07T05:03:29;20.50;;;9.47;;
23300;SDS011;11819;51.394;12.340;2023-03-07T05:05:59;20.40;;;10.47;;
23300;SDS011;11819;51.394;12.340;2023-03-07T05:08:30;26.33;;;12.10;;
23300;SDS011;11819;51.394;12.340;2023-03-07T05:10:56;15.53;;;7.70;;
23300;SDS011;11819;51.394;12.340;2023-03-07T05:13:23;20.43;;;10.73;;
23300;SDS011;11819;51.394;12.340;2023-03-07T05:15:53;24.07;;;10.77;;
23300;SDS011;11819;51.394;12.340;2023-03-07T05:18:21;21.17;;;10.50;;
23300;SDS011;11819;51.394;12.340;2023-03-07T05:20:48;22.07;;;11.37;;
23300;SDS011;11819;51.394;12.340;2023-03-07T05:23:15;15.80;;;7.97;;
23300;SDS011;11819;51.394;12.340;2023-03-07T05:25:42;14.03;;;6.67;;
23300;SDS011;11819;51.394;12.340;2023-03-07T05:28:09;15.87;;;6.87;;
23300;SDS011;11819;51.394;12.340;2023-03-07T05:30:34;15.57;;;7.93;;
23300;SDS011;11819;51.394;12.340;2023-03-07T05:33:00;14.37;;;7.23;;
23300;SDS011;11819;51.394;12.340;2023-03-07T05:35:26;14.27;;;7.90;;
23300;SDS011;11819;51.394;12.340;2023-03-07T05:37:54;20.40;;;10.40;;
23300;SDS011;11819;51.394;12.340;2023-03-07T05:40:19;14.40;;;6.67;;
23300;SDS011;11819;51.394;12.340;2023-03-07T05:42:46;10.37;;;6.33;;
23300;SDS011;11819;51.394;12.340;2023-03-07T05:45:12;16.73;;;9.43;;
23300;SDS011;11819;51.394;12.340;2023-03-07T05:47:40;18.23;;;9.53;;
23300;SDS011;11819;51.394;12.340;2023-03-07T05:50:08;9.90;;;5.17;;
23300;SDS011;11819;51.394;12.340;2023-03-07T05:52:34;9.97;;;5.13;;
23300;SDS011;11819;51.394;12.340;2023-03-07T05:55:00;17.20;;;8.93;;
23300;SDS011;11819;51.394;12.340;2023-03-07T05:57:26;15.77;;;7.73;;
23300;SDS011;11819;51.394;12.340;2023-03-07T05:59:51;15.83;;;7.93;;
23300;SDS011;11819;51.394;12.340;2023-03-07T06:02:17;10.10;;;5.50;;
23300;SDS011;11819;51.394;12.340;2023-03-07T06:04:43;15.43;;;8.50;;
23300;SDS011;11819;51.394;12.340;2023-03-07T06:07:12;12.13;;;6.37;;
23300;SDS011;11819;51.394;12.340;2023-03-07T06:09:40;11.57;;;6.77;;
23300;SDS011;11819;51.394;12.340;2023-03-07T06:12:07;9.70;;;5.40;;
23300;SDS011;11819;51.394;12.340;2023-03-07T06:14:34;7.17;;;3.80;;
23300;SDS011;11819;51.394;12.340;2023-03-07T06:17:00;14.70;;;7.63;;
23300;SDS011;11819;51.394;12.340;2023-03-07T06:19:26;11.07;;;5.57;;
23300;SDS011;11819;51.394;12.340;2023-03-07T06:21:52;9.83;;;4.60;;
23300;SDS011;11819;51.394;12.340;2023-03-07T06:24:18;14.33;;;6.30;;
23300;SDS011;11819;51.394;12.340;2023-03-07T06:26:44;8.90;;;4.67;;
23300;SDS011;11819;51.394;12.340;2023-03-07T06:29:11;9.10;;;5.03;;
23300;SDS011;11819;51.394;12.340;2023-03-07T06:31:38;10.37;;;5.23;;
23300;SDS011;11819;51.394;12.340;2023-03-07T06:34:04;14.57;;;5.30;;
23300;SDS011;11819;51.394;12.340;2023-03-07T06:36:29;8.97;;;4.70;;
23300;SDS011;11819;51.394;12.340;2023-03-07T06:38:58;10.43;;;5.30;;
23300;SDS011;11819;51.394;12.340;2023-03-07T06:41:25;11.27;;;6.07;;
23300;SDS011;11819;51.394;12.340;2023-03-07T06:43:54;17.83;;;9.17;;
23300;SDS011;11819;51.394;12.340;2023-03-07T06:46:25;13.33;;;7.33;;
23300;SDS011;11819;51.394;12.340;2023-03-07T06:48:53;11.17;;;6.10;;
23300;SDS011;11819;51.394;12.340;2023-03-07T06:51:19;9.63;;;4.80;;
23300;SDS011;11819;51.394;12.340;2023-03-07T06:53:46;8.67;;;4.90;;
23300;SDS011;11819;51.394;12.340;2023-03-07T06:56:13;14.77;;;5.27;;
23300;SDS011;11819;51.394;12.340;2023-03-07T06:58:40;10.63;;;5.47;;
23300;SDS011;11819;51.394;12.340;2023-03-07T07:01:14;10.63;;;5.07;;
23300;SDS011;11819;51.394;12.340;2023-03-07T07:03:45;13.40;;;6.43;;
23300;SDS011;11819;51.394;12.340;2023-03-07T07:06:11;10.37;;;4.97;;
23300;SDS011;11819;51.394;12.340;2023-03-07T07:08:37;8.77;;;4.77;;
23300;SDS011;11819;51.394;12.340;2023-03-07T07:11:03;14.60;;;7.53;;
23300;SDS011;11819;51.394;12.340;2023-03-07T07:13:29;8.00;;;4.60;;
23300;SDS011;11819;51.394;12.340;2023-03-07T07:15:55;11.23;;;6.07;;
23300;SDS011;11819;51.394;12.340;2023-03-07T07:18:22;10.30;;;5.17;;
23300;SDS011;11819;51.394;12.340;2023-03-07T07:20:53;9.80;;;4.07;;
23300;SDS011;11819;51.394;12.340;2023-03-07T07:23:19;10.73;;;4.93;;
23300;SDS011;11819;51.394;12.340;2023-03-07T07:25:46;8.87;;;3.63;;
23300;SDS011;11819;51.394;12.340;2023-03-07T07:28:15;11.73;;;6.13;;
23300;SDS011;11819;51.394;12.340;2023-03-07T07:30:41;13.43;;;6.70;;
23300;SDS011;11819;51.394;12.340;2023-03-07T07:33:07;13.30;;;5.67;;
23300;SDS011;11819;51.394;12.340;2023-03-07T07:35:33;14.90;;;7.73;;
23300;SDS011;11819;51.394;12.340;2023-03-07T07:38:00;10.20;;;5.60;;
23300;SDS011;11819;51.394;12.340;2023-03-07T07:40:26;10.93;;;5.67;;
23300;SDS011;11819;51.394;12.340;2023-03-07T07:42:51;10.07;;;5.70;;
23300;SDS011;11819;51.394;12.340;2023-03-07T07:45:25;9.27;;;5.40;;
23300;SDS011;11819;51.394;12.340;2023-03-07T07:47:51;10.47;;;4.87;;
23300;SDS011;11819;51.394;12.340;2023-03-07T07:50:19;7.27;;;4.23;;
23300;SDS011;11819;51.394;12.340;2023-03-07T07:52:46;10.03;;;5.37;;
23300;SDS011;11819;51.394;12.340;2023-03-07T07:55:12;7.57;;;4.07;;
23300;SDS011;11819;51.394;12.340;2023-03-07T07:57:41;7.00;;;3.27;;
23300;SDS011;11819;51.394;12.340;2023-03-07T08:00:08;11.23;;;5.93;;
23300;SDS011;11819;51.394;12.340;2023-03-07T08:02:39;6.93;;;3.83;;
23300;SDS011;11819;51.394;12.340;2023-03-07T08:05:06;7.30;;;4.20;;
23300;SDS011;11819;51.394;12.340;2023-03-07T08:07:34;8.97;;;4.80;;
23300;SDS011;11819;51.394;12.340;2023-03-07T08:09:59;9.37;;;3.97;;
23300;SDS011;11819;51.394;12.340;2023-03-07T08:12:26;5.80;;;3.43;;
23300;SDS011;11819;51.394;12.340;2023-03-07T08:14:51;7.30;;;3.70;;
23300;SDS011;11819;51.394;12.340;2023-03-07T08:17:17;6.30;;;3.50;;
23300;SDS011;11819;51.394;12.340;2023-03-07T08:19:42;8.80;;;4.10;;
23300;SDS011;11819;51.394;12.340;2023-03-07T08:22:09;8.43;;;4.60;;
23300;SDS011;11819;51.394;12.340;2023-03-07T08:24:34;9.03;;;3.97;;
23300;SDS011;11819;51.394;12.340;2023-03-07T08:27:00;7.23;;;3.53;;
23300;SDS011;11819;51.394;12.340;2023-03-07T08:29:26;11.50;;;4.33;;
23300;SDS011;11819;51.394;12.340;2023-03-07T08:31:53;12.53;;;5.30;;
23300;SDS011;11819;51.394;12.340;2023-03-07T08:34:19;8.83;;;4.17;;
23300;SDS011;11819;51.394;12.340;2023-03-07T08:36:45;6.87;;;3.77;;
23300;SDS011;11819;51.394;12.340;2023-03-07T08:39:11;7.40;;;3.77;;
23300;SDS011;11819;51.394;12.340;2023-03-07T08:41:38;7.67;;;4.83;;
23300;SDS011;11819;51.394;12.340;2023-03-07T08:44:04;7.07;;;3.33;;
23300;SDS011;11819;51.394;12.340;2023-03-07T08:46:29;10.10;;;4.40;;
23300;SDS011;11819;51.394;12.340;2023-03-07T08:48:55;7.27;;;3.80;;
23300;SDS011;11819;51.394;12.340;2023-03-07T08:51:20;10.37;;;4.70;;
23300;SDS011;11819;51.394;12.340;2023-03-07T08:53:50;7.60;;;4.37;;
23300;SDS011;11819;51.394;12.340;2023-03-07T08:56:16;5.80;;;2.67;;
23300;SDS011;11819;51.394;12.340;2023-03-07T08:58:43;7.40;;;3.73;;
23300;SDS011;11819;51.394;12.340;2023-03-07T09:01:08;7.90;;;4.00;;
23300;SDS011;11819;51.394;12.340;2023-03-07T09:03:35;9.47;;;4.83;;
23300;SDS011;11819;51.394;12.340;2023-03-07T09:06:01;9.13;;;4.30;;
23300;SDS011;11819;51.394;12.340;2023-03-07T09:08:27;10.57;;;4.13;;
23300;SDS011;11819;51.394;12.340;2023-03-07T09:10:53;11.33;;;6.40;;
23300;SDS011;11819;51.394;12.340;2023-03-07T09:13:22;10.87;;;5.73;;
23300;SDS011;11819;51.394;12.340;2023-03-07T09:15:48;6.03;;;2.80;;
23300;SDS011;11819;51.394;12.340;2023-03-07T09:18:14;8.50;;;4.23;;
23300;SDS011;11819;51.394;12.340;2023-03-07T09:20:39;8.83;;;5.03;;
23300;SDS011;11819;51.394;12.340;2023-03-07T09:23:05;7.33;;;3.70;;
23300;SDS011;11819;51.394;12.340;2023-03-07T09:25:31;5.77;;;3.37;;
23300;SDS011;11819;51.394;12.340;2023-03-07T09:27:57;9.33;;;4.67;;
23300;SDS011;11819;51.394;12.340;2023-03-07T09:30:24;9.27;;;5.53;;
23300;SDS011;11819;51.394;12.340;2023-03-07T09:32:52;10.77;;;5.20;;
23300;SDS011;11819;51.394;12.340;2023-03-07T09:35:17;8.03;;;4.50;;
23300;SDS011;11819;51.394;12.340;2023-03-07T09:37:43;9.70;;;5.10;;
23300;SDS011;11819;51.394;12.340;2023-03-07T09:40:15;9.67;;;4.73;;
23300;SDS011;11819;51.394;12.340;2023-03-07T09:42:55;8.00;;;4.37;;
23300;SDS011;11819;51.394;12.340;2023-03-07T09:48:28;19.20;;;10.13;;
23300;SDS011;11819;51.394;12.340;2023-03-07T09:53:52;10.90;;;5.83;;
23300;SDS011;11819;51.394;12.340;2023-03-07T09:56:30;10.70;;;5.57;;
23300;SDS011;11819;51.394;12.340;2023-03-07T09:59:06;9.30;;;4.63;;
23300;SDS011;11819;51.394;12.340;2023-03-07T10:01:38;8.17;;;4.87;;
23300;SDS011;11819;51.394;12.340;2023-03-07T10:04:06;8.30;;;5.17;;
23300;SDS011;11819;51.394;12.340;2023-03-07T10:06:42;11.87;;;5.60;;
23300;SDS011;11819;51.394;12.340;2023-03-07T10:09:14;10.30;;;5.37;;
23300;SDS011;11819;51.394;12.340;2023-03-07T10:17:26;10.73;;;5.33;;
23300;SDS011;11819;51.394;12.340;2023-03-07T10:28:45;9.43;;;5.20;;
23300;SDS011;11819;51.394;12.340;2023-03-07T10:31:17;12.17;;;7.27;;
23300;SDS011;11819;51.394;12.340;2023-03-07T10:33:48;10.47;;;5.70;;
23300;SDS011;11819;51.394;12.340;2023-03-07T10:36:19;11.27;;;6.40;;
23300;SDS011;11819;51.394;12.340;2023-03-07T10:39:03;12.20;;;6.57;;
23300;SDS011;11819;51.394;12.340;2023-03-07T10:41:41;10.53;;;6.00;;
23300;SDS011;11819;51.394;12.340;2023-03-07T10:44:09;10.60;;;5.67;;
23300;SDS011;11819;51.394;12.340;2023-03-07T10:46:41;10.23;;;4.80;;
23300;SDS011;11819;51.394;12.340;2023-03-07T10:54:32;12.07;;;5.57;;
23300;SDS011;11819;51.394;12.340;2023-03-07T10:59:36;13.50;;;7.90;;
23300;SDS011;11819;51.394;12.340;2023-03-07T11:02:21;11.97;;;7.57;;
23300;SDS011;11819;51.394;12.340;2023-03-07T11:04:50;10.10;;;5.97;;
23300;SDS011;11819;51.394;12.340;2023-03-07T11:07:36;13.77;;;7.20;;
23300;SDS011;11819;51.394;12.340;2023-03-07T11:10:23;13.90;;;5.40;;
23300;SDS011;11819;51.394;12.340;2023-03-07T11:13:10;14.30;;;8.20;;
23300;SDS011;11819;51.394;12.340;2023-03-07T11:15:39;9.70;;;5.73;;
23300;SDS011;11819;51.394;12.340;2023-03-07T11:18:07;9.93;;;5.07;;
23300;SDS011;11819;51.394;12.340;2023-03-07T11:21:01;9.13;;;5.27;;
23300;SDS011;11819;51.394;12.340;2023-03-07T11:23:29;12.20;;;6.40;;
23300;SDS011;11819;51.394;12.340;2023-03-07T11:25:57;9.73;;;5.10;;
23300;SDS011;11819;51.394;12.340;2023-03-07T11:28:41;10.27;;;5.67;;
23300;SDS011;11819;51.394;12.340;2023-03-07T11:31:21;11.70;;;5.77;;
23300;SDS011;11819;51.394;12.340;2023-03-07T11:33:55;14.43;;;6.87;;
23300;SDS011;11819;51.394;12.340;2023-03-07T11:39:05;12.57;;;6.50;;
23300;SDS011;11819;51.394;12.340;2023-03-07T11:41:45;12.20;;;6.13;;
23300;SDS011;11819;51.394;12.340;2023-03-07T12:06:32;14.00;;;6.97;;
23300;SDS011;11819;51.394;12.340;2023-03-07T12:26:19;7.20;;;3.47;;
23300;SDS011;11819;51.394;12.340;2023-03-07T12:29:59;6.30;;;3.83;;
23300;SDS011;11819;51.394;12.340;2023-03-07T12:32:07;9.67;;;4.67;;
23300;SDS011;11819;51.394;12.340;2023-03-07T12:34:42;10.87;;;5.43;;
23300;SDS011;11819;51.394;12.340;2023-03-07T12:37:15;7.60;;;4.40;;
23300;SDS011;11819;51.394;12.340;2023-03-07T12:39:52;11.90;;;5.80;;
23300;SDS011;11819;51.394;12.340;2023-03-07T12:45:28;11.63;;;6.60;;
23300;SDS011;11819;51.394;12.340;2023-03-07T12:48:03;11.70;;;5.97;;
23300;SDS011;11819;51.394;12.340;2023-03-07T12:55:57;8.87;;;4.67;;
23300;SDS011;11819;51.394;12.340;2023-03-07T12:58:38;8.30;;;5.40;;
23300;SDS011;11819;51.394;12.340;2023-03-07T13:01:22;9.25;;;4.55;;
23300;SDS011;11819;51.394;12.340;2023-03-07T13:04:06;9.27;;;5.40;;
23300;SDS011;11819;51.394;12.340;2023-03-07T13:07:05;10.90;;;4.87;;
23300;SDS011;11819;51.394;12.340;2023-03-07T13:09:52;11.73;;;5.80;;
23300;SDS011;11819;51.394;12.340;2023-03-07T13:14:54;9.77;;;5.33;;
23300;SDS011;11819;51.394;12.340;2023-03-07T13:20:02;11.97;;;6.50;;
23300;SDS011;11819;51.394;12.340;2023-03-07T13:27:53;9.65;;;4.20;;
23300;SDS011;11819;51.394;12.340;2023-03-07T13:30:23;9.93;;;5.68;;
23300;SDS011;11819;51.394;12.340;2023-03-07T13:32:56;13.18;;;5.50;;
23300;SDS011;11819;51.394;12.340;2023-03-07T13:37:55;11.40;;;4.90;;
23300;SDS011;11819;51.394;12.340;2023-03-07T13:41:00;7.30;;;4.47;;
23300;SDS011;11819;51.394;12.340;2023-03-07T13:45:54;9.45;;;4.70;;
23300;SDS011;11819;51.394;12.340;2023-03-07T13:59:16;9.32;;;5.38;;
23300;SDS011;11819;51.394;12.340;2023-03-07T14:01:47;8.60;;;5.33;;
23300;SDS011;11819;51.394;12.340;2023-03-07T14:09:26;9.70;;;4.87;;
23300;SDS011;11819;51.394;12.340;2023-03-07T14:12:19;11.27;;;5.88;;
23300;SDS011;11819;51.394;12.340;2023-03-07T14:15:15;12.93;;;5.60;;
23300;SDS011;11819;51.394;12.340;2023-03-07T14:26:24;5.77;;;2.40;;
23300;SDS011;11819;51.394;12.340;2023-03-07T14:29:10;7.27;;;2.00;;
23300;SDS011;11819;51.394;12.340;2023-03-07T14:31:38;3.63;;;1.90;;
23300;SDS011;11819;51.394;12.340;2023-03-07T14:36:58;4.43;;;2.20;;
23300;SDS011;11819;51.394;12.340;2023-03-07T14:39:36;5.80;;;2.00;;
23300;SDS011;11819;51.394;12.340;2023-03-07T14:42:24;5.00;;;1.93;;
23300;SDS011;11819;51.394;12.340;2023-03-07T14:48:28;4.53;;;2.20;;
23300;SDS011;11819;51.394;12.340;2023-03-07T14:50:56;5.30;;;2.33;;
23300;SDS011;11819;51.394;12.340;2023-03-07T14:53:35;5.77;;;2.53;;
23300;SDS011;11819;51.394;12.340;2023-03-07T14:56:01;5.33;;;2.60;;
23300;SDS011;11819;51.394;12.340;2023-03-07T14:58:32;5.87;;;2.60;;
23300;SDS011;11819;51.394;12.340;2023-03-07T15:01:02;5.53;;;2.47;;
23300;SDS011;11819;51.394;12.340;2023-03-07T15:03:28;4.30;;;2.50;;
23300;SDS011;11819;51.394;12.340;2023-03-07T15:05:57;6.70;;;2.53;;
23300;SDS011;11819;51.394;12.340;2023-03-07T15:08:25;5.70;;;2.80;;
23300;SDS011;11819;51.394;12.340;2023-03-07T15:16:11;6.27;;;2.23;;
23300;SDS011;11819;51.394;12.340;2023-03-07T15:18:45;4.40;;;2.20;;
23300;SDS011;11819;51.394;12.340;2023-03-07T15:21:25;9.33;;;2.93;;
23300;SDS011;11819;51.394;12.340;2023-03-07T15:23:56;5.10;;;2.20;;
23300;SDS011;11819;51.394;12.340;2023-03-07T15:26:23;6.80;;;2.30;;
23300;SDS011;11819;51.394;12.340;2023-03-07T15:28:57;4.20;;;2.13;;
23300;SDS011;11819;51.394;12.340;2023-03-07T15:31:47;5.57;;;2.50;;
23300;SDS011;11819;51.394;12.340;2023-03-07T15:34:21;5.93;;;2.23;;
23300;SDS011;11819;51.394;12.340;2023-03-07T15:36:54;5.43;;;1.90;;
23300;SDS011;11819;51.394;12.340;2023-03-07T15:39:38;6.63;;;2.10;;
23300;SDS011;11819;51.394;12.340;2023-03-07T15:42:04;5.33;;;2.57;;
23300;SDS011;11819;51.394;12.340;2023-03-07T15:44:33;5.67;;;2.40;;
23300;SDS011;11819;51.394;12.340;2023-03-07T15:47:12;4.27;;;2.10;;
23300;SDS011;11819;51.394;12.340;2023-03-07T15:49:42;4.40;;;2.20;;
23300;SDS011;11819;51.394;12.340;2023-03-07T15:54:57;3.80;;;1.97;;
23300;SDS011;11819;51.394;12.340;2023-03-07T15:57:29;5.17;;;2.30;;
23300;SDS011;11819;51.394;12.340;2023-03-07T16:00:05;3.60;;;2.20;;
23300;SDS011;11819;51.394;12.340;2023-03-07T16:02:40;5.00;;;1.97;;
23300;SDS011;11819;51.394;12.340;2023-03-07T16:07:49;4.73;;;2.20;;
23300;SDS011;11819;51.394;12.340;2023-03-07T16:10:18;3.43;;;1.80;;
23300;SDS011;11819;51.394;12.340;2023-03-07T16:12:45;3.83;;;2.10;;
23300;SDS011;11819;51.394;12.340;2023-03-07T16:15:13;4.70;;;2.40;;
23300;SDS011;11819;51.394;12.340;2023-03-07T16:17:40;3.23;;;2.07;;
23300;SDS011;11819;51.394;12.340;2023-03-07T16:20:13;4.47;;;2.13;;
23300;SDS011;11819;51.394;12.340;2023-03-07T16:22:41;3.87;;;2.13;;
23300;SDS011;11819;51.394;12.340;2023-03-07T16:25:06;5.17;;;2.40;;
23300;SDS011;11819;51.394;12.340;2023-03-07T16:27:35;3.00;;;1.90;;
23300;SDS011;11819;51.394;12.340;2023-03-07T16:30:01;3.73;;;2.10;;
23300;SDS011;11819;51.394;12.340;2023-03-07T16:32:26;4.33;;;2.10;;
23300;SDS011;11819;51.394;12.340;2023-03-07T16:34:53;3.50;;;2.13;;
23300;SDS011;11819;51.394;12.340;2023-03-07T16:37:19;4.43;;;2.33;;
23300;SDS011;11819;51.394;12.340;2023-03-07T16:39:45;5.33;;;2.17;;
23300;SDS011;11819;51.394;12.340;2023-03-07T16:42:20;4.10;;;2.43;;
23300;SDS011;11819;51.394;12.340;2023-03-07T16:44:46;5.87;;;2.23;;
23300;SDS011;11819;51.394;12.340;2023-03-07T16:47:14;5.47;;;2.70;;
23300;SDS011;11819;51.394;12.340;2023-03-07T16:49:42;5.27;;;2.43;;
23300;SDS011;11819;51.394;12.340;2023-03-07T16:52:11;5.00;;;2.50;;
23300;SDS011;11819;51.394;12.340;2023-03-07T16:54:38;5.43;;;2.67;;
23300;SDS011;11819;51.394;12.340;2023-03-07T16:57:04;5.70;;;2.63;;
23300;SDS011;11819;51.394;12.340;2023-03-07T16:59:34;9.30;;;3.83;;
23300;SDS011;11819;51.394;12.340;2023-03-07T17:02:04;8.13;;;3.30;;
23300;SDS011;11819;51.394;12.340;2023-03-07T17:04:37;7.47;;;2.97;;